createdAt,value
2019-06-27T00:00:05.595Z,19
2019-06-27T00:01:08.105Z,19.1
2019-06-27T00:02:10.189Z,19.1
2019-06-27T00:03:12.285Z,19.1
2019-06-27T00:05:16.514Z,19.2
2019-06-27T00:07:20.748Z,19.2
2019-06-27T00:08:23.245Z,19.2
2019-06-27T00:10:28.541Z,19
2019-06-27T00:12:33.214Z,19.3
2019-06-27T00:13:35.286Z,19.2
2019-06-27T00:14:37.411Z,19.1
2019-06-27T00:15:40.222Z,19
2019-06-27T00:17:45.541Z,18.6
2019-06-27T00:19:49.694Z,18.8
2019-06-27T00:20:51.827Z,19
2019-06-27T00:22:56.453Z,19.1
2019-06-27T00:25:00.959Z,18.6
2019-06-27T00:27:05.846Z,18.8
2019-06-27T00:28:07.896Z,18.9
2019-06-27T00:30:12.173Z,18.4
2019-06-27T00:32:16.691Z,18.3
2019-06-27T00:33:18.802Z,18.3
2019-06-27T00:34:20.871Z,18.3
2019-06-27T00:35:22.960Z,18.5
2019-06-27T00:37:27.209Z,18.6
2019-06-27T00:39:31.729Z,18.4
2019-06-27T00:40:33.831Z,18.7
2019-06-27T00:42:38.391Z,18.2
2019-06-27T00:44:42.607Z,18.1
2019-06-27T00:46:47.116Z,18.2
2019-06-27T00:47:49.202Z,18.1
2019-06-27T00:49:53.821Z,18
2019-06-27T00:51:58.061Z,18.2
2019-06-27T00:53:00.212Z,17.9
2019-06-27T00:55:04.739Z,17.7
2019-06-27T00:57:15.794Z,18.1
2019-06-27T00:58:18.453Z,18.4
2019-06-27T00:59:21.144Z,18.3
2019-06-27T01:00:23.233Z,18.3
2019-06-27T01:02:27.784Z,18
2019-06-27T01:04:32.391Z,17.5
2019-06-27T01:06:36.994Z,17.7
2019-06-27T01:07:39.063Z,17.9
2019-06-27T01:09:43.293Z,17.9
2019-06-27T01:11:48.836Z,18.2
2019-06-27T01:12:50.932Z,17.9
2019-06-27T01:13:52.990Z,17.5
2019-06-27T01:14:55.059Z,17.6
2019-06-27T01:16:59.316Z,17.9
2019-06-27T01:19:04.804Z,18.1
2019-06-27T01:20:06.898Z,18
2019-06-27T01:22:11.145Z,17.9
2019-06-27T01:24:15.679Z,18
2019-06-27T01:26:19.857Z,17.8
2019-06-27T01:27:31.468Z,17.6
2019-06-27T01:29:36.466Z,17.6
2019-06-27T01:31:40.683Z,17.5
2019-06-27T01:33:45.304Z,17.9
2019-06-27T01:34:48.076Z,17.6
2019-06-27T01:36:52.927Z,17.6
2019-06-27T01:38:57.535Z,17.8
2019-06-27T01:39:59.914Z,17.5
2019-06-27T01:41:01.983Z,17
2019-06-27T01:42:04.471Z,17.2
2019-06-27T01:44:09.003Z,17.6
2019-06-27T01:46:13.658Z,17.8
2019-06-27T01:47:16.042Z,17.6
2019-06-27T01:49:20.307Z,17.7
2019-06-27T01:51:24.427Z,17.7
2019-06-27T01:52:26.507Z,17.4
2019-06-27T01:53:28.608Z,17.3
2019-06-27T01:54:30.697Z,17.3
2019-06-27T01:56:35.385Z,17.9
2019-06-27T01:57:48.545Z,17.4
2019-06-27T01:58:50.664Z,17.2
2019-06-27T01:59:52.758Z,17.2
2019-06-27T02:00:54.851Z,17.4
2019-06-27T02:01:56.948Z,17.3
2019-06-27T02:04:01.786Z,17.3
2019-06-27T02:06:06.061Z,17.6
2019-06-27T02:07:08.534Z,17.2
2019-06-27T02:09:13.052Z,17.5
2019-06-27T02:11:17.298Z,17.2
2019-06-27T02:12:20.051Z,17.5
2019-06-27T02:13:23.183Z,17.1
2019-06-27T02:14:25.269Z,17.1
2019-06-27T02:16:29.763Z,17.5
2019-06-27T02:18:34.428Z,17.3
2019-06-27T02:19:36.567Z,16.9
2019-06-27T02:21:41.635Z,17
2019-06-27T02:23:45.924Z,17.1
2019-06-27T02:25:50.139Z,17
2019-06-27T02:26:52.242Z,17.4
2019-06-27T02:28:05.536Z,17
2019-06-27T02:29:07.910Z,17
2019-06-27T02:31:13.367Z,17.1
2019-06-27T02:33:19.440Z,17.2
2019-06-27T02:34:21.813Z,16.9
2019-06-27T02:36:26.351Z,17
2019-06-27T02:38:31.253Z,17.2
2019-06-27T02:40:36.100Z,16.7
2019-06-27T02:41:38.186Z,16.6
2019-06-27T02:43:43.152Z,17.2
2019-06-27T02:45:47.752Z,17.2
2019-06-27T02:46:50.117Z,17.1
2019-06-27T02:47:52.479Z,17.3
2019-06-27T02:48:54.576Z,16.8
2019-06-27T02:50:59.516Z,16.9
2019-06-27T02:53:04.192Z,16.8
2019-06-27T02:54:06.968Z,16.5
2019-06-27T02:56:11.812Z,16.7
2019-06-27T02:58:34.037Z,16.7
2019-06-27T03:00:38.301Z,16.6
2019-06-27T03:01:41.297Z,16.6
2019-06-27T03:02:44.068Z,16.9
2019-06-27T03:03:47.551Z,17.1
2019-06-27T03:05:52.369Z,17
2019-06-27T03:07:56.596Z,17.2
2019-06-27T03:08:58.668Z,16.7
2019-06-27T03:11:04.535Z,16.9
2019-06-27T03:13:10.070Z,16.9
2019-06-27T03:15:14.756Z,16.7
2019-06-27T03:16:16.801Z,16.6
2019-06-27T03:18:20.940Z,16.5
2019-06-27T03:20:25.638Z,16.4
2019-06-27T03:21:28.123Z,16.7
2019-06-27T03:22:30.217Z,16.6
2019-06-27T03:23:32.605Z,16.8
2019-06-27T03:25:36.789Z,16.9
2019-06-27T03:27:41.760Z,16.4
2019-06-27T03:28:55.772Z,16.4
2019-06-27T03:29:58.119Z,16.7
2019-06-27T03:31:00.406Z,16.9
2019-06-27T03:33:06.322Z,16.5
2019-06-27T03:35:11.417Z,16.6
2019-06-27T03:36:14.544Z,16.7
2019-06-27T03:37:16.679Z,16.6
2019-06-27T03:38:18.814Z,16.5
2019-06-27T03:40:23.917Z,16.3
2019-06-27T03:42:29.159Z,16.6
2019-06-27T03:43:31.250Z,16.8
2019-06-27T03:45:35.834Z,16.6
2019-06-27T03:47:41.634Z,16.6
2019-06-27T03:49:46.145Z,16.6
2019-06-27T03:50:48.254Z,16.4
2019-06-27T03:52:53.156Z,16.6
2019-06-27T03:54:57.667Z,16.6
2019-06-27T03:56:00.052Z,16.5
2019-06-27T03:57:02.387Z,16.5
2019-06-27T03:58:05.114Z,16.8
2019-06-27T03:59:15.213Z,16.6
2019-06-27T04:00:17.607Z,16
2019-06-27T04:02:23.037Z,16.2
2019-06-27T04:03:25.691Z,16.2
2019-06-27T04:04:27.780Z,16.6
2019-06-27T04:05:30.177Z,16.7
2019-06-27T04:07:35.177Z,16.7
2019-06-27T04:09:40.745Z,17
2019-06-27T04:10:43.142Z,16.8
2019-06-27T04:12:47.985Z,16.5
2019-06-27T04:14:53.188Z,16.6
2019-06-27T04:16:58.109Z,16.7
2019-06-27T04:18:00.574Z,16.9
2019-06-27T04:20:05.368Z,16.9
2019-06-27T04:22:10.192Z,16.4
2019-06-27T04:23:12.257Z,16.8
2019-06-27T04:24:14.773Z,16.9
2019-06-27T04:25:16.908Z,16.7
2019-06-27T04:27:22.126Z,16.5
2019-06-27T04:29:36.186Z,16.5
2019-06-27T04:30:38.312Z,16.8
2019-06-27T04:31:40.719Z,17.1
2019-06-27T04:32:42.787Z,17.2
2019-06-27T04:34:47.614Z,16.7
2019-06-27T04:36:52.128Z,17.1
2019-06-27T04:37:54.505Z,16.9
2019-06-27T04:39:59.781Z,17.1
2019-06-27T04:42:04.837Z,17.3
2019-06-27T04:44:10.891Z,17
2019-06-27T04:45:13.284Z,17.1
2019-06-27T04:47:18.571Z,16.7
2019-06-27T04:49:23.270Z,16.8
2019-06-27T04:50:26.058Z,16.7
2019-06-27T04:51:29.236Z,16.9
2019-06-27T04:52:31.695Z,17
2019-06-27T04:54:36.813Z,16.8
2019-06-27T04:56:41.452Z,17
2019-06-27T04:57:43.948Z,17.2
2019-06-27T04:59:55.302Z,17.3
2019-06-27T05:00:57.414Z,17.4
2019-06-27T05:01:59.779Z,17.6
2019-06-27T05:04:04.027Z,17.1
2019-06-27T05:05:06.781Z,17.2
2019-06-27T05:07:11.417Z,17.1
2019-06-27T05:09:18.405Z,17.6
2019-06-27T05:11:22.666Z,17.1
2019-06-27T05:12:25.090Z,17.1
2019-06-27T05:14:33.340Z,17.4
2019-06-27T05:16:38.349Z,17.3
2019-06-27T05:17:40.441Z,17.6
2019-06-27T05:18:42.989Z,17.6
2019-06-27T05:19:45.088Z,17.8
2019-06-27T05:21:49.294Z,17.9
2019-06-27T05:23:53.530Z,18
2019-06-27T05:24:55.890Z,17.9
2019-06-27T05:27:00.489Z,17.6
2019-06-27T05:29:05.061Z,17.7
2019-06-27T05:31:13.761Z,17.4
2019-06-27T05:32:16.420Z,17.3
2019-06-27T05:34:20.668Z,17.8
2019-06-27T05:36:26.130Z,18.4
2019-06-27T05:37:28.226Z,17.6
2019-06-27T05:38:30.294Z,17.6
2019-06-27T05:39:32.350Z,17.9
2019-06-27T05:41:36.590Z,17.9
2019-06-27T05:43:41.068Z,17.7
2019-06-27T05:44:43.156Z,18
2019-06-27T05:46:47.698Z,18.2
2019-06-27T05:48:52.321Z,18.4
2019-06-27T05:50:56.785Z,18.5
2019-06-27T05:51:58.889Z,18.3
2019-06-27T05:54:03.506Z,17.8
2019-06-27T05:56:08.111Z,18
2019-06-27T05:57:10.193Z,18
2019-06-27T05:58:12.673Z,18
2019-06-27T05:59:15.155Z,18.2
2019-06-27T06:00:30.978Z,18.5
2019-06-27T06:01:34.129Z,18.7
2019-06-27T06:03:39.049Z,18.6
2019-06-27T06:04:41.409Z,18.3
2019-06-27T06:05:43.849Z,18.2
2019-06-27T06:06:46.551Z,18.4
2019-06-27T06:08:51.162Z,18.7
2019-06-27T06:10:55.715Z,18.1
2019-06-27T06:11:57.780Z,17.9
2019-06-27T06:14:02.850Z,18.5
2019-06-27T06:16:07.093Z,18.8
2019-06-27T06:18:11.355Z,18.8
2019-06-27T06:19:13.884Z,18.9
2019-06-27T06:21:18.538Z,19.1
2019-06-27T06:23:23.359Z,18.8
2019-06-27T06:24:25.781Z,18.5
2019-06-27T06:25:28.256Z,18.2
2019-06-27T06:26:30.649Z,18
2019-06-27T06:28:35.189Z,18.3
2019-06-27T06:30:46.267Z,18.4
2019-06-27T06:31:50.626Z,18.5
2019-06-27T06:32:53.014Z,18.6
2019-06-27T06:33:55.111Z,18.5
2019-06-27T06:35:59.319Z,19.1
2019-06-27T06:38:04.972Z,19.3
2019-06-27T06:39:07.089Z,19.2
2019-06-27T06:41:11.614Z,19
2019-06-27T06:43:18.694Z,19.2
2019-06-27T06:44:23.667Z,19.3
2019-06-27T06:45:31.005Z,19.5
2019-06-27T06:46:38.612Z,19
2019-06-27T06:47:47.379Z,18.9
2019-06-27T06:48:59.289Z,18.8
2019-06-27T06:50:14.101Z,18.7
2019-06-27T06:51:22.543Z,18.6
2019-06-27T06:52:39.766Z,19.1
2019-06-27T06:54:00.084Z,18.7
2019-06-27T06:55:14.189Z,18.9
2019-06-27T06:56:24.865Z,19.1
2019-06-27T06:57:35.593Z,19.1
2019-06-27T06:58:41.900Z,18.9
2019-06-27T06:59:47.063Z,19.1
2019-06-27T07:01:03.849Z,19.4
2019-06-27T07:02:06.513Z,19.2
2019-06-27T07:04:11.378Z,18.9
2019-06-27T07:05:13.501Z,19
2019-06-27T07:06:15.873Z,19.2
2019-06-27T07:07:17.975Z,19.2
2019-06-27T07:09:23.331Z,19.6
2019-06-27T07:11:27.643Z,19.6
2019-06-27T07:12:30.172Z,19.8
2019-06-27T07:13:32.301Z,19.4
2019-06-27T07:14:35.215Z,19.2
2019-06-27T07:16:40.164Z,19.7
2019-06-27T07:18:44.712Z,19.7
2019-06-27T07:19:47.182Z,19.6
2019-06-27T07:21:51.993Z,19.4
2019-06-27T07:23:57.097Z,19.7
2019-06-27T07:25:00.440Z,19.1
2019-06-27T07:26:02.705Z,18.8
2019-06-27T07:27:04.786Z,19.3
2019-06-27T07:29:09.783Z,19.1
2019-06-27T07:31:19.541Z,19.4
2019-06-27T07:32:21.747Z,19.7
2019-06-27T07:33:23.810Z,19.7
2019-06-27T07:34:26.238Z,19.8
2019-06-27T07:36:31.999Z,19.6
2019-06-27T07:38:37.042Z,19.9
2019-06-27T07:39:39.152Z,19.9
2019-06-27T07:41:44.537Z,19.5
2019-06-27T07:43:48.790Z,19.9
2019-06-27T07:45:54.434Z,20.1
2019-06-27T07:46:57.395Z,20.5
2019-06-27T07:49:01.610Z,20.3
2019-06-27T07:51:07.209Z,20.7
2019-06-27T07:52:09.262Z,20.3
2019-06-27T07:53:11.814Z,20.3
2019-06-27T07:54:13.933Z,20.7
2019-06-27T07:56:18.590Z,20.9
2019-06-27T07:58:23.259Z,20.8
2019-06-27T07:59:25.452Z,20.8
2019-06-27T08:01:37.321Z,21.1
2019-06-27T08:02:39.438Z,20.8
2019-06-27T08:03:41.563Z,21.1
2019-06-27T08:05:46.648Z,21.3
2019-06-27T08:06:49.033Z,21.5
2019-06-27T08:08:54.340Z,20.8
2019-06-27T08:10:58.581Z,21.2
2019-06-27T08:13:03.929Z,21.3
2019-06-27T08:14:06.311Z,21.3
2019-06-27T08:16:10.651Z,21.5
2019-06-27T08:18:15.297Z,21.5
2019-06-27T08:19:17.737Z,21.5
2019-06-27T08:20:20.108Z,21.3
2019-06-27T08:21:22.211Z,21.5
2019-06-27T08:23:43.081Z,21.5
2019-06-27T08:25:47.344Z,21.8
2019-06-27T08:27:51.616Z,21.7
2019-06-27T08:28:53.811Z,21.1
2019-06-27T08:30:58.070Z,21.1
2019-06-27T08:33:04.271Z,21.4
2019-06-27T08:34:06.820Z,21.5
2019-06-27T08:35:09.295Z,21.5
2019-06-27T08:36:11.989Z,21.5
2019-06-27T08:38:16.633Z,21.7
2019-06-27T08:40:21.515Z,21
2019-06-27T08:41:23.899Z,21.2
2019-06-27T08:43:33.563Z,21.4
2019-06-27T08:44:39.747Z,21.4
2019-06-27T08:45:43.901Z,21.3
2019-06-27T08:47:50.384Z,21.9
2019-06-27T08:48:52.777Z,22
2019-06-27T08:50:56.969Z,22.1
2019-06-27T08:53:02.925Z,22.2
2019-06-27T08:54:05.456Z,22.1
2019-06-27T08:55:07.964Z,22.5
2019-06-27T08:56:10.479Z,22.7
2019-06-27T08:58:14.801Z,21.9
2019-06-27T09:00:19.082Z,22.4
2019-06-27T09:01:21.156Z,22.4
2019-06-27T09:03:25.999Z,22.6
2019-06-27T09:05:31.550Z,23
2019-06-27T09:07:36.065Z,23
2019-06-27T09:08:38.490Z,23.5
2019-06-27T09:10:43.345Z,23.2
2019-06-27T09:12:48.567Z,22.6
2019-06-27T09:13:50.670Z,23.1
2019-06-27T09:14:52.827Z,23.3
2019-06-27T09:15:54.964Z,23.4
2019-06-27T09:17:59.517Z,23.8
2019-06-27T09:20:04.908Z,23.9
2019-06-27T09:21:07.285Z,24.3
2019-06-27T09:23:11.940Z,22.9
2019-06-27T09:25:16.580Z,23.5
2019-06-27T09:27:21.850Z,23.4
2019-06-27T09:28:23.955Z,23.2
2019-06-27T09:30:29.473Z,23.5
2019-06-27T09:32:34.015Z,24.3
2019-06-27T09:33:36.485Z,24.4
2019-06-27T09:34:38.641Z,24.3
2019-06-27T09:35:41.135Z,24.2
2019-06-27T09:37:45.367Z,23.6
2019-06-27T09:39:50.160Z,24.3
2019-06-27T09:40:52.562Z,24.5
2019-06-27T09:42:56.890Z,23.9
2019-06-27T09:45:01.174Z,23.8
2019-06-27T09:47:05.929Z,24.7
2019-06-27T09:48:09.095Z,25.1
2019-06-27T09:50:13.709Z,25.6
2019-06-27T09:52:19.016Z,25.2
2019-06-27T09:53:21.117Z,24.9
2019-06-27T09:54:23.476Z,25
2019-06-27T09:55:26.241Z,25.5
2019-06-27T09:57:31.717Z,25.1
2019-06-27T09:59:36.085Z,25.2
2019-06-27T10:00:38.459Z,25.2
2019-06-27T10:02:44.026Z,24.1
2019-06-27T10:04:49.315Z,24.4
2019-06-27T10:06:53.595Z,25.4
2019-06-27T10:07:55.726Z,24.9
2019-06-27T10:10:00.173Z,25.4
2019-06-27T10:12:04.765Z,25.1
2019-06-27T10:13:06.883Z,25
2019-06-27T10:14:09.300Z,24.7
2019-06-27T10:15:11.690Z,25.1
2019-06-27T10:17:16.164Z,25.3
2019-06-27T10:19:21.172Z,26.3
2019-06-27T10:20:23.271Z,26.4
2019-06-27T10:22:27.865Z,25.9
2019-06-27T10:24:32.544Z,25.9
2019-06-27T10:26:41.551Z,25.9
2019-06-27T10:27:43.650Z,26.4
2019-06-27T10:29:49.009Z,26.7
2019-06-27T10:31:53.245Z,26.9
2019-06-27T10:34:03.615Z,25.3
2019-06-27T10:35:05.755Z,25.5
2019-06-27T10:37:10.277Z,26.5
2019-06-27T10:39:15.238Z,26.9
2019-06-27T10:40:18.055Z,27.2
2019-06-27T10:41:20.419Z,26.4
2019-06-27T10:42:22.534Z,25.6
2019-06-27T10:44:27.031Z,25.2
2019-06-27T10:46:31.565Z,26
2019-06-27T10:47:33.731Z,25.9
2019-06-27T10:49:38.715Z,26.6
2019-06-27T10:51:42.951Z,25.8
2019-06-27T10:52:45.051Z,25.8
2019-06-27T10:53:47.249Z,26.2
2019-06-27T10:54:49.435Z,27.2
2019-06-27T10:56:54.722Z,27.6
2019-06-27T10:58:59.600Z,27.1
2019-06-27T11:00:02.958Z,27
2019-06-27T11:02:07.811Z,26.8
2019-06-27T11:03:17.775Z,26.4
2019-06-27T11:04:20.345Z,26.7
2019-06-27T11:06:24.632Z,26.4
2019-06-27T11:07:26.723Z,27
2019-06-27T11:09:31.553Z,26.1
2019-06-27T11:11:36.503Z,26.3
2019-06-27T11:13:41.067Z,27.1
2019-06-27T11:15:01.136Z,27.2
2019-06-27T11:16:03.256Z,27.6
2019-06-27T11:17:05.378Z,26.4
2019-06-27T11:19:09.677Z,27.3
2019-06-27T11:21:18.656Z,26.1
2019-06-27T11:22:21.196Z,26.5
2019-06-27T11:23:23.721Z,26.4
2019-06-27T11:24:25.806Z,26.5
2019-06-27T11:26:31.165Z,26.9
2019-06-27T11:28:36.141Z,27.1
2019-06-27T11:29:38.273Z,26.9
2019-06-27T11:31:42.950Z,27.3
2019-06-27T11:33:47.271Z,27.9
2019-06-27T11:34:49.735Z,26.9
2019-06-27T11:35:52.105Z,26.7
2019-06-27T11:36:54.223Z,26.7
2019-06-27T11:38:58.520Z,26.1
2019-06-27T11:41:03.458Z,26.1
2019-06-27T11:42:05.857Z,26
2019-06-27T11:44:10.383Z,25.3
2019-06-27T11:46:14.651Z,26.6
2019-06-27T11:48:19.151Z,26.5
2019-06-27T11:49:22.235Z,26.2
2019-06-27T11:51:26.869Z,26.1
2019-06-27T11:53:31.131Z,26.6
2019-06-27T11:54:33.205Z,26.4
2019-06-27T11:55:35.321Z,26.5
2019-06-27T11:56:37.422Z,25.9
2019-06-27T11:58:41.621Z,25.5
2019-06-27T12:00:45.833Z,25.8
2019-06-27T12:01:47.958Z,25.6
2019-06-27T12:03:52.700Z,26.4
2019-06-27T12:05:56.906Z,26.8
2019-06-27T12:06:59.298Z,27.2
2019-06-27T12:08:02.377Z,26.9
2019-06-27T12:09:05.530Z,25.9
2019-06-27T12:11:10.379Z,26.7
2019-06-27T12:13:14.917Z,27.2
2019-06-27T12:14:17.417Z,27.3
2019-06-27T12:16:22.234Z,27.1
2019-06-27T12:18:26.498Z,27
2019-06-27T12:20:30.768Z,26.4
2019-06-27T12:21:33.561Z,26.1
2019-06-27T12:23:37.854Z,26.6
2019-06-27T12:25:42.958Z,26.9
2019-06-27T12:26:45.336Z,27.2
2019-06-27T12:27:47.768Z,26.7
2019-06-27T12:28:50.170Z,26.4
2019-06-27T12:30:54.596Z,26.2
2019-06-27T12:32:59.099Z,25.6
2019-06-27T12:34:08.776Z,25.5
2019-06-27T12:35:10.897Z,25.3
2019-06-27T12:36:13.110Z,25.4
2019-06-27T12:38:17.609Z,26.1
2019-06-27T12:40:22.285Z,27.2
2019-06-27T12:41:24.665Z,26
2019-06-27T12:42:34.194Z,26.5
2019-06-27T12:43:36.304Z,27.5
2019-06-27T12:45:40.587Z,27.6
2019-06-27T12:47:46.192Z,27.2
2019-06-27T12:48:48.652Z,27.5
2019-06-27T12:50:04.193Z,27.5
2019-06-27T12:51:06.312Z,27.7
2019-06-27T12:53:10.568Z,26.8
2019-06-27T12:55:14.857Z,27.7
2019-06-27T12:56:18.087Z,27
2019-06-27T12:58:23.431Z,28
2019-06-27T13:00:28.517Z,28
2019-06-27T13:02:33.168Z,28.4
2019-06-27T13:03:35.893Z,28.7
2019-06-27T13:05:41.477Z,29.4
2019-06-27T13:07:46.147Z,28.9
2019-06-27T13:09:52.476Z,28.9
2019-06-27T13:10:54.592Z,29.3
2019-06-27T13:12:58.980Z,28.2
2019-06-27T13:15:04.572Z,27.6
2019-06-27T13:16:07.038Z,27.9
2019-06-27T13:17:09.433Z,28.3
2019-06-27T13:18:11.828Z,28.2
2019-06-27T13:20:16.369Z,28.5
2019-06-27T13:22:21.389Z,28
2019-06-27T13:23:23.790Z,28.5
2019-06-27T13:25:28.462Z,28.5
2019-06-27T13:27:34.131Z,29.5
2019-06-27T13:29:38.647Z,28.3
2019-06-27T13:30:41.057Z,28.1
2019-06-27T13:32:45.535Z,28.7
2019-06-27T13:34:50.524Z,28.5
2019-06-27T13:35:52.631Z,29.1
2019-06-27T13:36:54.746Z,29.3
2019-06-27T13:37:57.149Z,29
2019-06-27T13:40:05.851Z,29.7
2019-06-27T13:42:10.405Z,28.6
2019-06-27T13:43:12.813Z,29.1
2019-06-27T13:44:14.911Z,29.9
2019-06-27T13:45:17.384Z,30.1
2019-06-27T13:47:22.062Z,29.9
2019-06-27T13:49:26.684Z,29.4
2019-06-27T13:50:28.783Z,28.9
2019-06-27T13:52:33.036Z,29.5
2019-06-27T13:54:37.312Z,29.3
2019-06-27T13:55:39.753Z,29.6
2019-06-27T13:56:42.547Z,30.1
2019-06-27T13:57:45.365Z,30.4
2019-06-27T13:59:50.719Z,30.4
2019-06-27T14:01:55.281Z,29.1
2019-06-27T14:02:57.698Z,29.3
2019-06-27T14:05:02.985Z,28.5
2019-06-27T14:07:07.653Z,28.6
2019-06-27T14:09:25.042Z,29.1
2019-06-27T14:10:27.442Z,29.7
2019-06-27T14:11:29.538Z,29.4
2019-06-27T14:12:32.056Z,29.3
2019-06-27T14:14:36.296Z,29
2019-06-27T14:16:40.998Z,28.2
2019-06-27T14:17:43.381Z,29.2
2019-06-27T14:19:51.893Z,30
2019-06-27T14:21:59.946Z,29.1
2019-06-27T14:24:04.836Z,30.1
2019-06-27T14:25:07.252Z,29.3
2019-06-27T14:27:12.117Z,30.5
2019-06-27T14:29:16.401Z,30.5
2019-06-27T14:30:18.515Z,30.2
2019-06-27T14:31:20.581Z,29.2
2019-06-27T14:32:22.643Z,29.5
2019-06-27T14:34:26.914Z,30.3
2019-06-27T14:36:32.589Z,30.1
2019-06-27T14:37:34.716Z,30.5
2019-06-27T14:39:39.233Z,29.5
2019-06-27T14:41:43.458Z,29.2
2019-06-27T14:43:47.953Z,29.4
2019-06-27T14:44:50.413Z,28.9
2019-06-27T14:46:55.346Z,28.5
2019-06-27T14:49:00.754Z,28.5
2019-06-27T14:50:03.236Z,28.9
2019-06-27T14:51:05.688Z,29.9
2019-06-27T14:52:07.796Z,30.5
2019-06-27T14:54:13.037Z,28.4
2019-06-27T14:56:17.344Z,28.6
2019-06-27T14:57:19.717Z,29
2019-06-27T14:59:23.967Z,27.7
2019-06-27T15:01:28.522Z,27.5
2019-06-27T15:02:30.642Z,27.1
2019-06-27T15:03:33.940Z,28.1
2019-06-27T15:04:36.029Z,28.8
2019-06-27T15:06:40.392Z,27.9
2019-06-27T15:08:44.972Z,28.7
2019-06-27T15:09:47.095Z,29.3
2019-06-27T15:10:49.264Z,29.9
2019-06-27T15:11:52.061Z,29.5
2019-06-27T15:14:01.244Z,27.8
2019-06-27T15:16:13.832Z,27.7
2019-06-27T15:17:16.264Z,27.3
2019-06-27T15:18:18.915Z,27.4
2019-06-27T15:19:21.071Z,27.9
2019-06-27T15:21:26.329Z,27.1
2019-06-27T15:23:31.369Z,26.1
2019-06-27T15:24:36.924Z,25.6
2019-06-27T15:25:39.091Z,25.9
2019-06-27T15:26:41.487Z,25.7
2019-06-27T15:28:46.677Z,27.5
2019-06-27T15:30:51.701Z,28.2
2019-06-27T15:31:53.815Z,27.2
2019-06-27T15:33:58.009Z,26.2
2019-06-27T15:36:03.567Z,26.3
2019-06-27T15:37:06.019Z,26.2
2019-06-27T15:38:08.195Z,26.8
2019-06-27T15:39:13.076Z,26.9
2019-06-27T15:41:17.347Z,26
2019-06-27T15:43:21.727Z,25.5
2019-06-27T15:44:23.978Z,25.8
2019-06-27T15:46:28.861Z,26.1
2019-06-27T15:48:33.406Z,25.3
2019-06-27T15:50:37.720Z,26.3
2019-06-27T15:51:40.581Z,26.1
2019-06-27T15:53:45.592Z,25.9
2019-06-27T15:55:49.862Z,27.3
2019-06-27T15:56:51.993Z,27.1
2019-06-27T15:57:54.404Z,27
2019-06-27T15:58:56.827Z,26.8
2019-06-27T16:01:01.449Z,27.3
2019-06-27T16:03:07.776Z,26
2019-06-27T16:04:09.894Z,25.1
2019-06-27T16:06:16.404Z,25.9
2019-06-27T16:07:19.007Z,25.8
2019-06-27T16:08:29.648Z,26.1
2019-06-27T16:10:38.318Z,25.7
2019-06-27T16:11:40.830Z,25.5
2019-06-27T16:13:46.043Z,25.1
2019-06-27T16:15:50.809Z,24.8
2019-06-27T16:16:53.116Z,25.1
2019-06-27T16:17:55.330Z,25.6
2019-06-27T16:18:58.204Z,25.4
2019-06-27T16:21:03.029Z,25.5
2019-06-27T16:23:07.492Z,25.3
2019-06-27T16:24:09.759Z,24.9
2019-06-27T16:25:12.511Z,24.6
2019-06-27T16:26:15.016Z,25
2019-06-27T16:28:19.604Z,24.1
2019-06-27T16:30:24.150Z,24.3
2019-06-27T16:31:27.054Z,24.6
2019-06-27T16:33:31.889Z,24.8
2019-06-27T16:35:36.406Z,25.4
2019-06-27T16:36:38.893Z,25.3
2019-06-27T16:37:41.104Z,25.6
2019-06-27T16:38:43.295Z,25.9
2019-06-27T16:40:48.034Z,26.3
2019-06-27T16:42:53.440Z,25.6
2019-06-27T16:43:55.618Z,25.3
2019-06-27T16:46:01.110Z,23.9
2019-06-27T16:48:06.170Z,23.8
2019-06-27T16:50:11.911Z,23.7
2019-06-27T16:51:14.113Z,24.2
2019-06-27T16:53:18.617Z,23.8
2019-06-27T16:54:21.577Z,23.9
2019-06-27T16:55:26.931Z,24.1
2019-06-27T16:57:34.289Z,24.2
2019-06-27T16:58:36.729Z,23.6
2019-06-27T17:00:41.161Z,23.3
2019-06-27T17:02:45.639Z,24.1
2019-06-27T17:03:47.856Z,24.6
2019-06-27T17:04:50.289Z,24.9
2019-06-27T17:05:52.802Z,25.1
2019-06-27T17:07:57.570Z,25.6
2019-06-27T17:10:02.505Z,25.6
2019-06-27T17:11:05.065Z,25.7
2019-06-27T17:13:10.275Z,24.9
2019-06-27T17:15:15.158Z,25.5
2019-06-27T17:17:19.645Z,26.4
2019-06-27T17:18:22.175Z,25.3
2019-06-27T17:20:26.612Z,25.1
2019-06-27T17:22:31.383Z,24.1
2019-06-27T17:23:33.577Z,24.1
2019-06-27T17:24:36.103Z,23.5
2019-06-27T17:25:38.972Z,23.8
2019-06-27T17:27:43.422Z,24.4
2019-06-27T17:29:48.194Z,25.1
2019-06-27T17:30:50.678Z,24.7
2019-06-27T17:32:55.433Z,24.6
2019-06-27T17:34:59.914Z,25.7
2019-06-27T17:36:02.073Z,25.3
2019-06-27T17:37:05.133Z,25.3
2019-06-27T17:38:07.344Z,25
2019-06-27T17:40:12.114Z,24.1
2019-06-27T17:42:16.525Z,23.6
2019-06-27T17:43:19.030Z,23.1
2019-06-27T17:45:27.710Z,22.9
2019-06-27T17:47:32.158Z,23
2019-06-27T17:49:37.017Z,23.3
2019-06-27T17:50:39.495Z,23.2
2019-06-27T17:52:44.297Z,23
2019-06-27T17:54:48.758Z,22.7
2019-06-27T17:56:53.666Z,22.9
2019-06-27T17:57:56.168Z,22.9
2019-06-27T18:00:00.813Z,23
2019-06-27T18:02:05.853Z,23.2
2019-06-27T18:03:08.422Z,23.3
2019-06-27T18:04:10.629Z,23.2
2019-06-27T18:05:13.231Z,23.4
2019-06-27T18:07:18.277Z,23.9
2019-06-27T18:09:23.068Z,23.6
2019-06-27T18:10:25.867Z,23.5
2019-06-27T18:12:30.324Z,23.5
2019-06-27T18:14:34.754Z,23.5
2019-06-27T18:15:36.927Z,23.4
2019-06-27T18:16:39.145Z,23.3
2019-06-27T18:17:41.610Z,23.3
2019-06-27T18:19:46.069Z,23.7
2019-06-27T18:21:50.861Z,23.4
2019-06-27T18:22:53.045Z,23.1
2019-06-27T18:24:57.756Z,22.6
2019-06-27T18:27:02.151Z,23.1
2019-06-27T18:29:07.278Z,23.2
2019-06-27T18:30:09.451Z,23
2019-06-27T18:32:14.288Z,22.2
2019-06-27T18:34:19.436Z,22.3
2019-06-27T18:35:21.909Z,22.2
2019-06-27T18:36:24.128Z,22.4
2019-06-27T18:37:31.620Z,22.3
2019-06-27T18:39:36.506Z,22.6
2019-06-27T18:41:40.859Z,22.5
2019-06-27T18:42:43.053Z,22.6
2019-06-27T18:43:45.188Z,22.4
2019-06-27T18:44:47.407Z,22.2
2019-06-27T18:46:52.268Z,22.3
2019-06-27T18:48:57.806Z,22.4
2019-06-27T18:50:00.017Z,22.4
2019-06-27T18:52:04.801Z,21.4
2019-06-27T18:54:09.650Z,22.3
2019-06-27T18:56:14.085Z,21.8
2019-06-27T18:57:16.281Z,22
2019-06-27T18:59:21.977Z,21.8
2019-06-27T19:01:27.137Z,22
2019-06-27T19:02:29.712Z,22.1
2019-06-27T19:03:31.935Z,21.7
2019-06-27T19:04:34.115Z,21.4
2019-06-27T19:06:38.585Z,21.8
2019-06-27T19:08:49.557Z,21.3
2019-06-27T19:09:51.711Z,21.3
2019-06-27T19:11:56.205Z,21.7
2019-06-27T19:14:01.427Z,21.1
2019-06-27T19:16:06.574Z,21.5
2019-06-27T19:17:08.774Z,21.1
2019-06-27T19:19:13.474Z,21.5
2019-06-27T19:21:18.339Z,21.6
2019-06-27T19:22:20.830Z,21
2019-06-27T19:24:25.667Z,20.7
2019-06-27T19:26:30.110Z,21.3
2019-06-27T19:27:32.270Z,21.2
2019-06-27T19:29:37.410Z,20.7
2019-06-27T19:31:42.147Z,20.7
2019-06-27T19:32:44.321Z,20.6
2019-06-27T19:33:46.505Z,20.8
2019-06-27T19:34:48.699Z,20.5
2019-06-27T19:36:53.351Z,20.8
2019-06-27T19:38:04.359Z,20.6
2019-06-27T19:39:07.123Z,20.5
2019-06-27T19:40:09.292Z,20.1
2019-06-27T19:41:11.550Z,20.5
2019-06-27T19:42:15.401Z,20.2
2019-06-27T19:43:29.280Z,20.5
2019-06-27T19:44:31.480Z,20.6
2019-06-27T19:46:36.441Z,20.3
2019-06-27T19:47:38.674Z,20.5
2019-06-27T19:48:40.870Z,20.5
2019-06-27T19:49:43.444Z,20.4
2019-06-27T19:51:48.224Z,20
2019-06-27T19:53:52.636Z,20.6
2019-06-27T19:54:54.835Z,20.7
2019-06-27T19:57:00.224Z,20
2019-06-27T19:59:05.862Z,20.3
2019-06-27T20:01:10.924Z,20.1
2019-06-27T20:02:13.141Z,20
2019-06-27T20:04:17.541Z,20.2
2019-06-27T20:06:22.560Z,20.2
2019-06-27T20:07:24.948Z,20.1
2019-06-27T20:08:27.143Z,20.4
2019-06-27T20:09:29.765Z,19.9
2019-06-27T20:11:34.676Z,19.9
2019-06-27T20:13:39.448Z,20.1
2019-06-27T20:14:41.644Z,20.2
2019-06-27T20:16:46.061Z,19.9
2019-06-27T20:18:50.910Z,20.1
2019-06-27T20:20:56.414Z,19.8
2019-06-27T20:21:58.606Z,20.1
2019-06-27T20:24:04.155Z,19.9
2019-06-27T20:26:08.992Z,19.8
2019-06-27T20:27:11.479Z,19.7
2019-06-27T20:28:13.663Z,19.5
2019-06-27T20:29:16.267Z,19.8
2019-06-27T20:31:22.351Z,19.9
2019-06-27T20:33:26.777Z,20
2019-06-27T20:34:29.257Z,20.2
2019-06-27T20:35:31.782Z,20.3
2019-06-27T20:36:33.963Z,20.2
2019-06-27T20:38:38.749Z,20.1
2019-06-27T20:40:43.473Z,20.3
2019-06-27T20:41:45.658Z,20.5
2019-06-27T20:43:50.095Z,19.7
2019-06-27T20:45:54.843Z,19.7
2019-06-27T20:46:57.042Z,19.7
2019-06-27T20:47:59.218Z,19.5
2019-06-27T20:49:01.795Z,19.7
2019-06-27T20:51:06.294Z,19.7
2019-06-27T20:53:11.442Z,20
2019-06-27T20:54:13.695Z,19.3
2019-06-27T20:56:18.502Z,19.8
2019-06-27T20:58:22.911Z,19.6
2019-06-27T21:00:27.354Z,19.7
2019-06-27T21:01:32.814Z,20
2019-06-27T21:03:37.284Z,19.4
2019-06-27T21:05:42.361Z,19.5
2019-06-27T21:06:44.582Z,19.7
2019-06-27T21:07:46.784Z,20
2019-06-27T21:08:53.047Z,19.5
2019-06-27T21:10:57.479Z,19.2
2019-06-27T21:13:02.626Z,19.5
2019-06-27T21:14:05.106Z,19.5